Time;durP1;ratioP1;P1;durP2;ratioP2;P2;SDS_P1;SDS_P2;PMS_P1;PMS_P2;Temp;Humidity;BMP_temperature;BMP_pressure;BME280_temperature;BME280_humidity;BME280_pressure;Samples;Min_cycle;Max_cycle;Signal;HPM_P1;HPM_P2
2023/05/21 00:01:31;;;;;;;;;;;;;;;17.52;61.24;97727.97;5089453;28;19931;-55
2023/05/21 00:03:59;;;;;;;;;;;;;;;17.49;61.25;97727.88;5094125;27;19938;-54
2023/05/21 00:06:27;;;;;;;;;;;;;;;17.44;61.25;97725.41;5081721;28;19930;-54
2023/05/21 00:08:59;;;;;;;;;;;;;;;17.52;61.14;97722.47;5081106;28;19942;-55
2023/05/21 00:11:27;;;;;;;;;;;;;;;17.43;61.27;97712.84;5078364;28;19941;-55
2023/05/21 00:13:55;;;;;;;;;;;;;;;17.57;61.10;97718.63;5086368;28;19931;-55
2023/05/21 00:16:23;;;;;;;;;;;;;;;17.58;60.97;97719.41;5080331;28;20000;-55
2023/05/21 00:18:53;;;;;;;;;;;;;;;17.48;61.36;97713.34;5084150;28;19959;-55
2023/05/21 00:21:21;;;;;;;;;;;;;;;17.44;61.48;97712.47;5082037;28;19935;-55
2023/05/21 00:23:49;;;;;;;;;;;;;;;17.41;61.49;97715.94;5091252;28;19955;-57
2023/05/21 00:26:18;;;;;;;;;;;;;;;17.47;61.33;97719.19;5087275;28;20355;-55
2023/05/21 00:28:47;;;;;;;;;;;;;;;17.40;61.46;97706.09;5092397;28;20025;-55
2023/05/21 00:31:16;;;;;;;;;;;;;;;17.35;61.68;97700.91;5063182;28;19981;-54
2023/05/21 00:33:43;;;;;;;;;;;;;;;17.36;61.69;97705.22;5068228;28;19934;-55
2023/05/21 00:36:13;;;;;;;;;;;;;;;17.31;61.68;97699.22;5059292;28;19931;-55
2023/05/21 00:38:42;;;;;;;;;;;;;;;17.36;61.61;97701.69;5083451;28;19942;-54
2023/05/21 00:41:10;;;;;;;;;;;;;;;17.31;61.94;97700.06;5072798;28;20395;-55
2023/05/21 00:43:39;;;;;;;;;;;;;;;17.28;62.20;97698.81;5089168;28;20293;-55
2023/05/21 00:46:07;;;;;;;;;;;;;;;17.36;61.51;97698.94;5065945;28;19934;-54
2023/05/21 00:48:35;;;;;;;;;;;;;;;17.38;61.75;97694.69;5080009;28;19937;-55
2023/05/21 00:51:02;;;;;;;;;;;;;;;17.29;61.99;97702.34;5069223;28;19961;-55
2023/05/21 00:53:33;;;;;;;;;;;;;;;17.27;61.84;97694.47;5067986;28;19934;-55
2023/05/21 00:56:01;;;;;;;;;;;;;;;17.32;61.84;97692.63;5086209;28;19958;-55
2023/05/21 00:58:29;;;;;;;;;;;;;;;17.37;61.85;97689.59;5085915;28;19962;-55
2023/05/21 01:01:02;;;;;;;;;;;;;;;17.28;61.95;97693.31;5071984;28;20053;-54
2023/05/21 01:03:37;;;;;;;;;;;;;;;17.29;61.80;97689.41;5071012;28;19942;-55
2023/05/21 01:06:06;;;;;;;;;;;;;;;17.22;62.10;97685.75;5073007;28;19984;-54
2023/05/21 01:08:36;;;;;;;;;;;;;;;17.29;62.02;97688.63;5078949;28;20403;-55
2023/05/21 01:11:04;;;;;;;;;;;;;;;17.21;62.13;97690.44;5091510;28;19992;-57
2023/05/21 01:13:33;;;;;;;;;;;;;;;17.14;62.16;97690.25;5090595;28;19950;-54
2023/05/21 01:16:02;;;;;;;;;;;;;;;17.10;62.30;97683.94;5071665;28;19934;-55
2023/05/21 01:18:33;;;;;;;;;;;;;;;17.06;62.60;97683.03;5063953;28;20021;-54
2023/05/21 01:21:01;;;;;;;;;;;;;;;17.11;62.84;97691.00;5079859;28;19943;-54
2023/05/21 01:23:31;;;;;;;;;;;;;;;17.07;62.74;97687.38;5082608;28;19950;-56
2023/05/21 01:25:58;;;;;;;;;;;;;;;17.03;62.82;97690.03;5123489;27;20022;-55
2023/05/21 01:28:28;;;;;;;;;;;;;;;17.27;62.06;97683.50;5080597;28;19935;-55
2023/05/21 01:30:56;;;;;;;;;;;;;;;17.07;62.59;97690.13;5119977;28;20318;-55
2023/05/21 01:33:28;;;;;;;;;;;;;;;17.01;62.77;97681.38;5081926;28;21413;-54
2023/05/21 01:35:57;;;;;;;;;;;;;;;16.94;63.09;97685.94;5087754;28;19931;-55
2023/05/21 01:38:26;;;;;;;;;;;;;;;17.02;62.74;97691.19;5084677;28;20344;-56
2023/05/21 01:40:57;;;;;;;;;;;;;;;16.97;62.83;97691.47;5088766;28;19961;-54
2023/05/21 01:43:25;;;;;;;;;;;;;;;16.93;63.06;97684.31;5090312;28;19981;-54
2023/05/21 01:45:55;;;;;;;;;;;;;;;17.05;63.01;97684.22;5085960;28;19956;-55
2023/05/21 01:48:27;;;;;;;;;;;;;;;17.06;63.05;97680.31;5089391;28;20004;-55
2023/05/21 01:50:55;;;;;;;;;;;;;;;16.89;63.40;97678.75;5134865;27;20338;-54
2023/05/21 01:53:23;;;;;;;;;;;;;;;16.81;63.70;97676.22;5093672;28;20673;-54
2023/05/21 01:55:50;;;;;;;;;;;;;;;16.87;63.33;97683.00;5087131;28;20441;-54
2023/05/21 01:58:20;;;;;;;;;;;;;;;16.74;63.85;97674.91;5094892;28;19939;-56
2023/05/21 02:00:49;;;;;;;;;;;;;;;16.69;64.01;97675.16;5094495;28;20033;-54
2023/05/21 02:03:18;;;;;;;;;;;;;;;16.68;64.15;97672.78;5096531;28;19934;-56
2023/05/21 02:05:50;;;;;;;;;;;;;;;16.81;63.76;97677.00;5089755;28;19937;-59
2023/05/21 02:08:22;;;;;;;;;;;;;;;16.77;63.79;97668.69;5097849;28;19941;-55
2023/05/21 02:10:50;;;;;;;;;;;;;;;16.76;63.71;97669.84;5087252;28;20025;-56
2023/05/21 02:13:19;;;;;;;;;;;;;;;16.74;63.96;97677.66;5125794;27;19966;-54
2023/05/21 02:15:50;;;;;;;;;;;;;;;16.67;64.42;97677.47;5084005;28;19935;-58
2023/05/21 02:18:20;;;;;;;;;;;;;;;16.60;64.37;97674.53;5117949;27;19942;-56
2023/05/21 02:20:48;;;;;;;;;;;;;;;16.63;64.72;97676.56;5080546;28;20399;-55
2023/05/21 02:23:16;;;;;;;;;;;;;;;16.68;64.40;97670.03;5098381;28;20056;-54
2023/05/21 02:25:43;;;;;;;;;;;;;;;16.68;64.44;97670.03;5088847;28;20021;-54
2023/05/21 02:28:11;;;;;;;;;;;;;;;16.56;64.98;97670.13;5087484;28;20349;-54
2023/05/21 02:30:39;;;;;;;;;;;;;;;16.58;64.76;97673.31;5127853;27;19935;-54
2023/05/21 02:33:12;;;;;;;;;;;;;;;16.77;64.54;97670.63;5093061;28;19938;-57
2023/05/21 02:35:40;;;;;;;;;;;;;;;16.60;64.96;97662.78;5085970;28;20364;-54
2023/05/21 02:38:09;;;;;;;;;;;;;;;16.50;65.10;97672.34;5091369;28;19935;-56
2023/05/21 02:40:37;;;;;;;;;;;;;;;16.49;65.23;97662.53;5090162;28;19950;-55
2023/05/21 02:43:05;;;;;;;;;;;;;;;16.42;65.77;97660.41;5084013;28;19939;-54
2023/05/21 02:45:35;;;;;;;;;;;;;;;16.38;65.81;97658.72;5096914;28;19934;-54
2023/05/21 02:48:03;;;;;;;;;;;;;;;16.38;65.80;97661.47;5098029;28;19950;-57
2023/05/21 02:50:38;;;;;;;;;;;;;;;16.38;66.02;97659.53;5082260;28;19941;-55
2023/05/21 02:53:06;;;;;;;;;;;;;;;16.29;66.08;97661.66;5085070;28;20364;-54
2023/05/21 02:55:35;;;;;;;;;;;;;;;16.46;65.86;97666.00;5102755;28;20260;-54
2023/05/21 02:58:03;;;;;;;;;;;;;;;16.40;66.25;97664.66;5091679;28;20147;-54
2023/05/21 03:00:31;;;;;;;;;;;;;;;16.32;66.29;97662.91;5086924;28;20459;-54
2023/05/21 03:03:00;;;;;;;;;;;;;;;16.29;66.65;97666.34;5087991;28;19931;-56
2023/05/21 03:05:28;;;;;;;;;;;;;;;16.41;66.53;97658.84;5084627;28;19946;-55
2023/05/21 03:07:57;;;;;;;;;;;;;;;16.26;66.89;97659.63;5091984;28;20001;-56
2023/05/21 03:10:25;;;;;;;;;;;;;;;16.35;67.09;97663.00;5091635;28;19942;-55
2023/05/21 03:12:53;;;;;;;;;;;;;;;16.28;67.14;97662.00;5093135;28;20004;-54
2023/05/21 03:15:22;;;;;;;;;;;;;;;16.22;67.53;97664.22;5107826;28;19935;-54
2023/05/21 03:17:52;;;;;;;;;;;;;;;16.19;67.51;97665.75;5096743;28;19934;-55
2023/05/21 03:20:20;;;;;;;;;;;;;;;16.26;67.44;97667.06;5080914;28;19941;-55
2023/05/21 03:22:48;;;;;;;;;;;;;;;16.20;67.91;97663.78;5122668;27;19954;-54
2023/05/21 03:25:20;;;;;;;;;;;;;;;16.16;68.02;97660.97;5108253;28;19941;-56
2023/05/21 03:27:47;;;;;;;;;;;;;;;16.15;68.24;97666.81;5093598;28;19964;-55
2023/05/21 03:30:35;;;;;;;;;;;;;;;16.16;68.31;97668.38;5088121;28;19988;-54
2023/05/21 03:33:23;;;;;;;;;;;;;;;16.26;68.23;97667.84;5057787;28;19935;-54
2023/05/21 03:35:51;;;;;;;;;;;;;;;16.13;68.59;97664.38;5088503;28;19931;-56
2023/05/21 03:38:19;;;;;;;;;;;;;;;16.08;68.75;97667.41;5116978;27;20353;-54
2023/05/21 03:40:49;;;;;;;;;;;;;;;16.20;68.49;97670.06;5080319;28;19949;-54
2023/05/21 03:43:16;;;;;;;;;;;;;;;16.13;68.75;97666.34;5095766;28;20033;-54
2023/05/21 03:45:44;;;;;;;;;;;;;;;16.09;69.07;97662.75;5105384;28;19931;-55
2023/05/21 03:48:31;;;;;;;;;;;;;;;16.05;69.02;97665.38;5083320;28;19934;-54
2023/05/21 03:51:00;;;;;;;;;;;;;;;15.99;69.59;97661.31;5077771;28;20029;-54
2023/05/21 03:53:28;;;;;;;;;;;;;;;16.06;69.64;97661.47;5090441;28;19949;-54
2023/05/21 03:55:57;;;;;;;;;;;;;;;16.00;69.79;97664.84;5096333;28;19930;-54
2023/05/21 03:58:25;;;;;;;;;;;;;;;16.09;69.46;97669.00;5091311;28;19941;-56
2023/05/21 04:00:54;;;;;;;;;;;;;;;16.19;68.90;97676.72;5094094;28;19950;-54
2023/05/21 04:03:22;;;;;;;;;;;;;;;16.15;69.27;97675.03;5090345;28;20029;-56
2023/05/21 04:05:53;;;;;;;;;;;;;;;16.10;69.38;97676.06;5084110;28;19969;-55
2023/05/21 04:08:21;;;;;;;;;;;;;;;16.05;69.93;97681.81;5091452;28;20387;-54
2023/05/21 04:10:48;;;;;;;;;;;;;;;16.07;69.85;97685.00;5106557;28;19934;-59
2023/05/21 04:13:18;;;;;;;;;;;;;;;16.02;69.98;97678.97;5113734;27;20249;-55
2023/05/21 04:15:46;;;;;;;;;;;;;;;16.09;69.95;97674.50;5085745;28;19942;-55
2023/05/21 04:18:15;;;;;;;;;;;;;;;16.33;69.29;97678.19;5095288;28;19935;-54
2023/05/21 04:20:43;;;;;;;;;;;;;;;16.19;69.45;97679.44;5084829;28;20041;-54
2023/05/21 04:23:11;;;;;;;;;;;;;;;16.11;70.08;97674.91;5102875;27;19959;-55
2023/05/21 04:25:41;;;;;;;;;;;;;;;16.12;70.23;97681.19;5081839;28;20407;-54
2023/05/21 04:28:11;;;;;;;;;;;;;;;16.12;70.22;97678.47;5088490;28;20439;-54
2023/05/21 04:30:41;;;;;;;;;;;;;;;16.13;70.15;97680.84;5092816;28;19930;-54
2023/05/21 04:33:08;;;;;;;;;;;;;;;16.14;70.24;97682.44;5097354;28;20271;-56
2023/05/21 04:35:36;;;;;;;;;;;;;;;16.20;70.33;97692.00;5115196;27;19960;-54
2023/05/21 04:38:05;;;;;;;;;;;;;;;16.42;69.65;97687.03;5085015;28;19949;-54
2023/05/21 04:40:33;;;;;;;;;;;;;;;16.31;69.57;97696.94;5088359;28;19931;-54
2023/05/21 04:43:03;;;;;;;;;;;;;;;16.35;69.51;97693.16;5094598;28;19951;-54
2023/05/21 04:45:31;;;;;;;;;;;;;;;16.36;69.79;97691.19;5107423;28;19935;-55
2023/05/21 04:48:01;;;;;;;;;;;;;;;16.40;69.48;97690.13;5083043;28;19935;-54
2023/05/21 04:50:30;;;;;;;;;;;;;;;16.45;69.38;97686.31;5104820;28;19935;-54
2023/05/21 04:52:58;;;;;;;;;;;;;;;16.47;69.33;97689.50;5087476;28;20367;-58
2023/05/21 04:55:26;;;;;;;;;;;;;;;16.56;69.07;97692.84;5107456;28;19971;-56
2023/05/21 04:57:55;;;;;;;;;;;;;;;16.56;69.15;97692.06;5091469;28;19938;-55
2023/05/21 05:00:24;;;;;;;;;;;;;;;16.57;69.26;97699.94;5084999;28;20562;-55
2023/05/21 05:02:52;;;;;;;;;;;;;;;16.63;68.85;97698.53;5094719;28;19947;-56
2023/05/21 05:05:22;;;;;;;;;;;;;;;16.67;68.56;97693.91;5107291;28;19941;-54
2023/05/21 05:07:50;;;;;;;;;;;;;;;16.80;68.22;97694.63;5097807;28;19973;-55
2023/05/21 05:10:17;;;;;;;;;;;;;;;16.77;68.37;97698.06;5093654;28;19939;-55
2023/05/21 05:12:45;;;;;;;;;;;;;;;16.84;68.01;97702.94;5085351;28;19968;-54
2023/05/21 05:15:13;;;;;;;;;;;;;;;16.79;68.23;97700.47;5090890;28;19935;-55
2023/05/21 05:17:42;;;;;;;;;;;;;;;16.93;67.71;97700.78;5123791;27;19934;-57
2023/05/21 05:20:10;;;;;;;;;;;;;;;16.90;67.72;97707.00;5078181;28;19935;-54
2023/05/21 05:22:39;;;;;;;;;;;;;;;16.89;67.77;97705.41;5090233;28;20016;-54
2023/05/21 05:25:08;;;;;;;;;;;;;;;16.99;67.33;97702.09;5093774;28;19969;-63
2023/05/21 05:27:36;;;;;;;;;;;;;;;17.01;67.21;97708.03;5091313;28;19954;-55
2023/05/21 05:30:06;;;;;;;;;;;;;;;17.02;67.40;97710.41;5088776;28;20693;-54
2023/05/21 05:32:34;;;;;;;;;;;;;;;17.06;67.38;97705.00;5131241;27;20342;-54
2023/05/21 05:35:02;;;;;;;;;;;;;;;17.18;66.96;97704.88;5083435;28;19937;-60
2023/05/21 05:37:31;;;;;;;;;;;;;;;17.26;66.50;97703.88;5096807;28;20090;-55
2023/05/21 05:40:00;;;;;;;;;;;;;;;17.26;66.58;97708.59;5113932;27;20429;-54
2023/05/21 05:42:29;;;;;;;;;;;;;;;17.22;66.58;97703.00;5118366;27;19947;-55
2023/05/21 05:44:58;;;;;;;;;;;;;;;17.31;66.16;97702.81;5092585;28;19935;-55
2023/05/21 05:47:28;;;;;;;;;;;;;;;17.39;65.60;97704.53;5091627;28;20284;-55
2023/05/21 05:49:56;;;;;;;;;;;;;;;17.49;65.47;97695.72;5096577;28;19934;-55
2023/05/21 05:52:24;;;;;;;;;;;;;;;17.53;65.20;97701.28;5080750;28;19935;-55
2023/05/21 05:54:52;;;;;;;;;;;;;;;17.55;64.68;97704.47;5118769;27;19938;-57
2023/05/21 05:57:21;;;;;;;;;;;;;;;17.64;64.66;97696.78;5092744;28;20397;-55
2023/05/21 05:59:52;;;;;;;;;;;;;;;17.68;64.79;97686.66;5120431;27;19982;-55
2023/05/21 06:02:20;;;;;;;;;;;;;;;17.80;64.34;97694.00;5092513;28;19946;-55
2023/05/21 06:04:48;;;;;;;;;;;;;;;17.82;63.89;97694.41;5083649;28;19925;-61
2023/05/21 06:07:16;;;;;;;;;;;;;;;17.85;63.49;97687.41;5086011;28;19938;-55
2023/05/21 06:09:43;;;;;;;;;;;;;;;17.97;63.07;97682.53;5090424;28;20021;-54
2023/05/21 06:12:14;;;;;;;;;;;;;;;18.02;63.46;97695.19;5085156;28;19938;-54
2023/05/21 06:14:45;;;;;;;;;;;;;;;18.01;63.25;97686.13;5103808;28;19930;-56
2023/05/21 06:17:12;;;;;;;;;;;;;;;18.12;62.93;97688.28;5088654;28;19939;-58
2023/05/21 06:19:41;;;;;;;;;;;;;;;18.17;63.00;97694.28;5104922;28;19968;-54
2023/05/21 06:22:09;;;;;;;;;;;;;;;18.26;62.07;97694.00;5087064;28;19993;-54
2023/05/21 06:24:38;;;;;;;;;;;;;;;18.31;62.26;97685.44;5104910;28;20025;-55
2023/05/21 06:27:06;;;;;;;;;;;;;;;18.41;61.57;97690.34;5097074;28;20011;-54
2023/05/21 06:29:33;;;;;;;;;;;;;;;18.42;61.68;97685.63;5089022;28;20053;-59
2023/05/21 06:32:03;;;;;;;;;;;;;;;18.51;61.61;97686.19;5089488;28;20026;-54
2023/05/21 06:34:31;;;;;;;;;;;;;;;18.54;61.23;97685.44;5084872;28;19935;-54
2023/05/21 06:36:59;;;;;;;;;;;;;;;18.63;60.84;97685.97;5094690;28;20029;-54
2023/05/21 06:39:28;;;;;;;;;;;;;;;18.71;60.68;97687.72;5092037;28;20372;-54
2023/05/21 06:41:56;;;;;;;;;;;;;;;18.90;60.25;97694.25;5097334;28;20333;-54
2023/05/21 06:44:40;;;;;;;;;;;;;;;18.99;59.80;97684.56;5130127;27;19930;-54
2023/05/21 06:47:17;;;;;;;;;;;;;;;19.09;59.09;97692.19;5093315;28;20028;-58
2023/05/21 06:49:45;;;;;;;;;;;;;;;19.20;59.43;97691.53;5120049;27;19935;-56
2023/05/21 06:52:13;;;;;;;;;;;;;;;19.23;58.64;97691.59;5089585;28;19950;-54
2023/05/21 06:54:41;;;;;;;;;;;;;;;19.27;58.82;97688.88;5099625;28;19938;-56
2023/05/21 06:57:09;;;;;;;;;;;;;;;19.23;58.76;97686.09;5103711;28;20001;-54
2023/05/21 06:59:37;;;;;;;;;;;;;;;19.22;58.06;97689.97;5084716;28;20272;-54
2023/05/21 07:02:05;;;;;;;;;;;;;;;19.24;58.15;97689.63;5090282;28;19939;-54
2023/05/21 07:04:35;;;;;;;;;;;;;;;19.33;58.48;97690.94;5123250;27;19966;-54
2023/05/21 07:07:03;;;;;;;;;;;;;;;19.28;57.67;97694.03;5083580;28;19980;-54
2023/05/21 07:09:31;;;;;;;;;;;;;;;19.35;57.96;97702.38;5104359;28;20021;-54
2023/05/21 07:12:00;;;;;;;;;;;;;;;19.38;58.13;97698.84;5109353;28;19934;-54
2023/05/21 07:14:28;;;;;;;;;;;;;;;19.41;57.82;97693.78;5090375;28;19981;-54
2023/05/21 07:16:56;;;;;;;;;;;;;;;19.50;57.67;97695.06;5096119;28;19938;-53
2023/05/21 07:19:23;;;;;;;;;;;;;;;19.65;57.05;97690.53;5088965;28;20254;-54
2023/05/21 07:21:53;;;;;;;;;;;;;;;19.66;57.40;97694.91;5114427;27;19931;-58
2023/05/21 07:24:22;;;;;;;;;;;;;;;19.66;57.05;97697.66;5124440;27;20399;-54
2023/05/21 07:26:50;;;;;;;;;;;;;;;19.70;57.47;97692.16;5090880;28;19941;-54
2023/05/21 07:29:18;;;;;;;;;;;;;;;19.85;56.63;97691.94;5105488;28;19939;-54
2023/05/21 07:31:45;;;;;;;;;;;;;;;19.98;56.20;97688.94;5089698;28;19938;-54
2023/05/21 07:34:13;;;;;;;;;;;;;;;19.97;56.13;97684.56;5090229;28;19938;-55
2023/05/21 07:36:42;;;;;;;;;;;;;;;20.08;54.93;97691.00;5086940;28;19935;-55
2023/05/21 07:39:11;;;;;;;;;;;;;;;20.08;55.41;97683.53;5091092;28;19935;-55
2023/05/21 07:41:39;;;;;;;;;;;;;;;20.17;55.10;97685.97;5092512;28;19934;-55
2023/05/21 07:44:08;;;;;;;;;;;;;;;20.19;54.98;97694.66;5088942;28;19954;-58
2023/05/21 07:46:41;;;;;;;;;;;;;;;20.22;55.24;97685.63;5120260;27;19934;-56
2023/05/21 07:49:15;;;;;;;;;;;;;;;20.23;54.07;97678.13;5090432;28;20029;-60
2023/05/21 07:51:45;;;;;;;;;;;;;;;20.33;54.47;97683.75;5086370;28;19930;-55
2023/05/21 07:54:14;;;;;;;;;;;;;;;20.32;53.81;97681.38;5100107;28;19935;-55
2023/05/21 07:56:42;;;;;;;;;;;;;;;20.37;53.90;97687.31;5119785;27;19931;-54
2023/05/21 07:59:20;;;;;;;;;;;;;;;20.44;53.80;97688.56;5094941;28;20375;-54
2023/05/21 08:01:48;;;;;;;;;;;;;;;20.39;53.82;97679.44;5106483;27;19931;-54
2023/05/21 08:04:19;;;;;;;;;;;;;;;20.50;54.15;97678.78;5094897;28;20046;-55
2023/05/21 08:06:47;;;;;;;;;;;;;;;20.57;54.03;97681.63;5088931;28;19945;-61
2023/05/21 08:09:16;;;;;;;;;;;;;;;20.71;52.82;97684.47;5081322;28;19935;-54
2023/05/21 08:11:45;;;;;;;;;;;;;;;20.73;52.85;97687.66;5083667;28;19938;-55
2023/05/21 08:14:13;;;;;;;;;;;;;;;20.83;53.00;97681.41;5082764;28;20028;-54
2023/05/21 08:16:42;;;;;;;;;;;;;;;20.96;53.48;97689.38;5087938;28;19982;-55
2023/05/21 08:19:10;;;;;;;;;;;;;;;20.98;52.64;97690.56;5116003;27;19934;-55
2023/05/21 08:21:38;;;;;;;;;;;;;;;21.00;52.75;97687.41;5088520;28;19956;-55
2023/05/21 08:24:06;;;;;;;;;;;;;;;21.10;52.17;97681.97;5101294;28;19955;-55
2023/05/21 08:26:35;;;;;;;;;;;;;;;21.10;51.00;97692.22;5087104;28;19931;-56
2023/05/21 08:29:03;;;;;;;;;;;;;;;21.14;49.47;97685.50;5117406;27;19931;-55
2023/05/21 08:31:31;;;;;;;;;;;;;;;21.19;49.06;97684.34;5091486;28;20338;-54
2023/05/21 08:33:59;;;;;;;;;;;;;;;21.22;48.60;97680.84;5120608;27;19931;-55
2023/05/21 08:36:41;;;;;;;;;;;;;;;21.27;48.73;97683.22;5098841;28;20317;-54
2023/05/21 08:39:26;;;;;;;;;;;;;;;21.40;48.41;97686.47;5117303;27;19939;-55
2023/05/21 08:41:57;;;;;;;;;;;;;;;21.50;48.10;97679.41;5101890;28;19934;-55
2023/05/21 08:44:26;;;;;;;;;;;;;;;21.51;46.96;97675.44;5117917;27;20277;-55
2023/05/21 08:46:54;;;;;;;;;;;;;;;21.52;47.44;97685.31;5080846;28;19927;-57
2023/05/21 08:49:22;;;;;;;;;;;;;;;21.58;47.51;97672.72;5115286;27;19976;-54
2023/05/21 08:51:53;;;;;;;;;;;;;;;21.63;46.84;97673.16;5083191;28;20395;-55
2023/05/21 08:54:21;;;;;;;;;;;;;;;21.83;47.27;97678.31;5130614;27;20316;-62
2023/05/21 08:56:49;;;;;;;;;;;;;;;21.96;46.75;97676.78;5093960;28;20381;-57
2023/05/21 08:59:18;;;;;;;;;;;;;;;22.17;46.51;97671.31;5087075;28;19924;-55
2023/05/21 09:01:48;;;;;;;;;;;;;;;22.29;45.44;97672.91;5112550;27;20060;-55
2023/05/21 09:04:24;;;;;;;;;;;;;;;22.44;44.64;97676.47;5109289;28;19920;-55
2023/05/21 09:06:56;;;;;;;;;;;;;;;22.57;44.77;97665.78;5086771;28;20064;-55
2023/05/21 09:09:45;;;;;;;;;;;;;;;22.74;44.70;97665.78;5076558;28;19997;-59
2023/05/21 09:12:14;;;;;;;;;;;;;;;22.84;44.07;97672.47;5088373;28;20354;-55
2023/05/21 09:14:43;;;;;;;;;;;;;;;22.90;44.22;97667.34;5098509;28;19930;-55
2023/05/21 09:17:16;;;;;;;;;;;;;;;22.95;43.90;97672.47;5098384;28;19935;-54
2023/05/21 09:20:09;;;;;;;;;;;;;;;22.95;43.12;97669.69;5105832;28;19942;-56
2023/05/21 09:22:42;;;;;;;;;;;;;;;22.98;43.21;97678.00;5086908;28;20434;-54
2023/05/21 09:25:14;;;;;;;;;;;;;;;22.99;42.79;97670.50;5075139;28;19988;-54
2023/05/21 09:27:42;;;;;;;;;;;;;;;22.94;42.85;97671.69;5078288;28;19950;-54
2023/05/21 09:30:12;;;;;;;;;;;;;;;22.89;43.36;97677.63;5070562;28;19934;-58
2023/05/21 09:32:41;;;;;;;;;;;;;;;22.73;42.81;97668.91;5069371;28;20009;-56
2023/05/21 09:35:10;;;;;;;;;;;;;;;22.74;43.65;97676.84;5077902;28;20576;-54
2023/05/21 09:37:38;;;;;;;;;;;;;;;22.78;44.68;97676.03;5071241;28;19920;-55
2023/05/21 09:40:10;;;;;;;;;;;;;;;22.78;44.07;97676.03;5095452;28;19921;-54
2023/05/21 09:42:38;;;;;;;;;;;;;;;22.80;44.22;97682.78;5084703;28;20380;-54
2023/05/21 09:45:07;;;;;;;;;;;;;;;22.86;44.12;97675.66;5081023;28;19954;-55
2023/05/21 09:47:37;;;;;;;;;;;;;;;22.90;43.86;97679.19;5077692;28;19958;-55
2023/05/21 09:50:05;;;;;;;;;;;;;;;22.92;44.15;97665.75;5086363;28;19924;-54
2023/05/21 09:52:36;;;;;;;;;;;;;;;22.93;45.36;97681.19;5082595;28;19943;-55
2023/05/21 09:55:04;;;;;;;;;;;;;;;22.91;45.18;97671.72;5076398;28;20398;-55
2023/05/21 09:57:31;;;;;;;;;;;;;;;22.91;45.47;97675.28;5080568;28;20391;-55
2023/05/21 10:00:00;;;;;;;;;;;;;;;22.85;46.69;97665.75;5080913;28;19926;-56
2023/05/21 10:02:28;;;;;;;;;;;;;;;22.90;47.19;97668.13;5095694;28;20089;-54
2023/05/21 10:04:59;;;;;;;;;;;;;;;22.95;47.33;97681.56;5094269;28;20027;-56
2023/05/21 10:07:27;;;;;;;;;;;;;;;22.93;46.58;97675.66;5081198;28;20239;-56
2023/05/21 10:09:56;;;;;;;;;;;;;;;22.88;46.71;97670.50;5078674;28;19923;-56
2023/05/21 10:12:24;;;;;;;;;;;;;;;22.87;46.37;97674.44;5095599;28;20360;-61
2023/05/21 10:14:53;;;;;;;;;;;;;;;22.87;47.17;97671.69;5086501;28;19920;-57
2023/05/21 10:17:21;;;;;;;;;;;;;;;22.90;46.58;97676.44;5090348;28;20357;-54
2023/05/21 10:19:49;;;;;;;;;;;;;;;22.95;47.28;97673.25;5091566;28;20210;-56
2023/05/21 10:22:18;;;;;;;;;;;;;;;23.05;46.96;97663.34;5090006;28;20035;-53
2023/05/21 10:24:46;;;;;;;;;;;;;;;22.95;46.87;97672.47;5085445;28;19955;-55
2023/05/21 10:27:14;;;;;;;;;;;;;;;22.97;46.62;97668.13;5080025;28;20334;-56
2023/05/21 10:29:41;;;;;;;;;;;;;;;23.14;46.96;97668.47;5090719;28;20363;-56
2023/05/21 10:32:09;;;;;;;;;;;;;;;23.11;46.71;97658.97;5087878;28;20296;-55
2023/05/21 10:34:37;;;;;;;;;;;;;;;23.16;46.68;97661.34;5102358;28;19941;-56
2023/05/21 10:37:05;;;;;;;;;;;;;;;23.15;45.81;97657.00;5119181;27;20367;-56
2023/05/21 10:39:34;;;;;;;;;;;;;;;23.19;46.18;97659.75;5094613;28;20610;-55
2023/05/21 10:42:05;;;;;;;;;;;;;;;23.26;46.07;97654.19;5091919;28;19974;-55
2023/05/21 10:44:38;;;;;;;;;;;;;;;23.27;45.93;97652.97;5099110;28;19919;-55
2023/05/21 10:47:22;;;;;;;;;;;;;;;23.43;45.97;97656.09;5088629;28;19989;-55
2023/05/21 10:49:56;;;;;;;;;;;;;;;23.44;45.41;97651.34;5086724;28;19920;-55
2023/05/21 10:52:28;;;;;;;;;;;;;;;23.43;45.33;97645.00;5095372;28;19938;-55
2023/05/21 10:55:13;;;;;;;;;;;;;;;23.49;45.09;97648.94;5093776;28;19942;-56
2023/05/21 10:57:53;;;;;;;;;;;;;;;23.58;43.91;97642.16;5088554;28;19930;-55
2023/05/21 11:00:21;;;;;;;;;;;;;;;23.72;44.44;97642.91;5103790;28;20268;-55
2023/05/21 11:02:50;;;;;;;;;;;;;;;23.66;43.59;97639.00;5091294;28;20536;-56
2023/05/21 11:05:23;;;;;;;;;;;;;;;23.73;43.82;97638.16;5077739;28;19947;-57
2023/05/21 11:07:52;;;;;;;;;;;;;;;23.81;42.16;97634.16;5092563;28;19938;-59
2023/05/21 11:10:30;;;;;;;;;;;;;;;23.89;42.21;97624.56;5088235;28;19958;-55
2023/05/21 11:13:09;;;;;;;;;;;;;;;23.91;41.23;97627.72;5084633;28;19972;-55
2023/05/21 11:15:56;;;;;;;;;;;;;;;24.03;38.85;97624.50;5093618;28;19934;-56
2023/05/21 11:18:24;;;;;;;;;;;;;;;24.03;37.84;97624.50;5091090;28;20295;-62
2023/05/21 11:20:52;;;;;;;;;;;;;;;24.05;36.21;97622.09;5107674;28;19958;-60
2023/05/21 11:23:20;;;;;;;;;;;;;;;24.07;36.80;97624.44;5097585;28;19954;-55
2023/05/21 11:25:52;;;;;;;;;;;;;;;24.10;37.91;97622.84;5092649;28;19988;-55
2023/05/21 11:28:34;;;;;;;;;;;;;;;24.20;36.10;97621.97;5114948;27;19964;-55
2023/05/21 11:31:21;;;;;;;;;;;;;;;24.23;36.65;97621.94;5092118;28;19934;-58
2023/05/21 11:33:49;;;;;;;;;;;;;;;24.25;37.38;97624.31;5094551;28;19934;-56
2023/05/21 11:36:17;;;;;;;;;;;;;;;24.30;36.55;97613.56;5080360;28;19988;-55
2023/05/21 11:38:45;;;;;;;;;;;;;;;24.33;36.09;97609.16;5090387;28;19942;-59
2023/05/21 11:41:13;;;;;;;;;;;;;;;24.44;36.81;97611.88;5089061;28;19938;-54
2023/05/21 11:43:43;;;;;;;;;;;;;;;24.47;36.96;97614.63;5079358;28;19981;-55
2023/05/21 11:46:11;;;;;;;;;;;;;;;24.55;36.00;97607.84;5090726;28;20033;-55
2023/05/21 11:48:39;;;;;;;;;;;;;;;24.65;36.65;97611.69;5104912;28;20368;-57
2023/05/21 11:51:07;;;;;;;;;;;;;;;24.69;38.44;97606.88;5096427;28;19997;-54
2023/05/21 11:53:37;;;;;;;;;;;;;;;24.71;36.58;97607.25;5085382;28;20283;-56
2023/05/21 11:56:08;;;;;;;;;;;;;;;24.73;36.46;97604.09;5090110;28;19939;-56
2023/05/21 11:58:36;;;;;;;;;;;;;;;24.64;36.22;97609.31;5085159;28;19988;-54
2023/05/21 12:01:05;;;;;;;;;;;;;;;24.63;36.82;97610.53;5083682;28;20360;-55
2023/05/21 12:03:34;;;;;;;;;;;;;;;24.65;36.90;97613.66;5085780;28;19930;-55
2023/05/21 12:06:05;;;;;;;;;;;;;;;24.60;35.89;97603.78;5082340;28;20395;-55
2023/05/21 12:08:34;;;;;;;;;;;;;;;24.53;36.90;97613.00;5083710;28;19935;-55
2023/05/21 12:11:02;;;;;;;;;;;;;;;24.52;35.06;97613.41;5090815;28;20281;-55
2023/05/21 12:13:30;;;;;;;;;;;;;;;24.50;35.83;97611.06;5088398;28;20380;-55
2023/05/21 12:15:58;;;;;;;;;;;;;;;24.41;34.44;97612.72;5083297;28;20349;-54
2023/05/21 12:18:27;;;;;;;;;;;;;;;24.41;34.74;97613.50;5089670;28;19948;-55
2023/05/21 12:20:55;;;;;;;;;;;;;;;24.49;35.11;97605.88;5083990;28;19966;-54
2023/05/21 12:23:23;;;;;;;;;;;;;;;24.58;34.18;97613.75;5078707;28;19982;-57
2023/05/21 12:25:52;;;;;;;;;;;;;;;24.60;33.98;97603.00;5089518;28;19946;-59
2023/05/21 12:28:20;;;;;;;;;;;;;;;24.71;33.97;97609.25;5088385;28;20288;-55
2023/05/21 12:30:48;;;;;;;;;;;;;;;24.77;34.72;97611.19;5089442;28;19992;-63
2023/05/21 12:33:16;;;;;;;;;;;;;;;24.86;33.72;97601.56;5088871;28;20064;-56
2023/05/21 12:35:48;;;;;;;;;;;;;;;24.95;34.74;97599.06;5091273;28;19931;-55
2023/05/21 12:38:16;;;;;;;;;;;;;;;25.08;33.12;97597.34;5081804;28;20039;-56
2023/05/21 12:40:44;;;;;;;;;;;;;;;25.16;34.19;97598.84;5079029;28;19939;-56
2023/05/21 12:43:12;;;;;;;;;;;;;;;25.10;34.42;97600.53;5090031;28;19938;-55
2023/05/21 12:45:42;;;;;;;;;;;;;;;25.16;35.25;97603.63;5089793;28;19978;-55
2023/05/21 12:48:11;;;;;;;;;;;;;;;25.16;34.16;97603.63;5084974;28;19935;-56
2023/05/21 12:50:40;;;;;;;;;;;;;;;25.20;34.70;97598.81;5087950;28;20461;-56
2023/05/21 12:53:11;;;;;;;;;;;;;;;25.26;33.84;97606.28;5083858;28;19935;-54
2023/05/21 12:55:39;;;;;;;;;;;;;;;25.48;33.47;97611.56;5088142;28;19941;-55
2023/05/21 12:58:07;;;;;;;;;;;;;;;25.52;33.21;97612.31;5083593;28;20024;-54
2023/05/21 13:00:36;;;;;;;;;;;;;;;25.66;31.94;97614.09;5085871;28;19931;-54